createdAt,value
2023-04-02T00:00:34.665Z,85.0375
2023-04-02T00:01:35.450Z,85.2060
2023-04-02T00:02:36.317Z,85.3879
2023-04-02T00:03:37.347Z,85.1417
2023-04-02T00:04:38.229Z,84.6313
2023-04-02T00:05:39.029Z,84.7499
2023-04-02T00:06:39.842Z,84.8786
2023-04-02T00:07:40.669Z,84.6822
2023-04-02T00:08:41.520Z,84.3433
2023-04-02T00:09:42.424Z,83.8118
2023-04-02T00:10:43.196Z,83.5849
2023-04-02T00:11:43.962Z,84.2994
2023-04-02T00:12:44.814Z,84.7401
2023-04-02T00:13:46.655Z,84.3711
2023-04-02T00:14:47.581Z,84.4126
2023-04-02T00:15:48.378Z,84.3714
2023-04-02T00:16:49.246Z,84.2638
2023-04-02T00:17:50.230Z,84.4356
2023-04-02T00:18:50.988Z,84.8620
2023-04-02T00:19:51.810Z,84.8087
2023-04-02T00:20:52.615Z,84.6211
2023-04-02T00:21:53.608Z,84.3929
2023-04-02T00:22:54.401Z,83.9589
2023-04-02T00:23:55.222Z,84.2607
2023-04-02T00:24:56.065Z,84.4110
2023-04-02T00:25:57.042Z,84.5164
2023-04-02T00:26:57.943Z,84.7531
2023-04-02T00:27:58.720Z,84.8021
2023-04-02T00:28:59.523Z,85.2662
2023-04-02T00:30:00.418Z,85.5950
2023-04-02T00:31:01.242Z,85.4866
2023-04-02T00:32:02.139Z,86.0612
2023-04-02T00:33:03.078Z,86.1825
2023-04-02T00:34:03.924Z,86.7653
2023-04-02T00:35:04.813Z,86.8736
2023-04-02T00:36:05.643Z,87.2903
2023-04-02T00:37:06.473Z,87.0671
2023-04-02T00:38:07.342Z,87.6441
2023-04-02T00:39:08.111Z,87.6431
2023-04-02T00:40:08.914Z,87.3583
2023-04-02T00:41:09.766Z,87.1302
2023-04-02T00:42:10.582Z,87.3386
2023-04-02T00:43:11.413Z,87.4892
2023-04-02T00:44:12.253Z,87.5765
2023-04-02T00:45:13.074Z,87.7641
2023-04-02T00:46:13.965Z,87.7587
2023-04-02T00:47:14.953Z,87.8954
2023-04-02T00:48:15.778Z,87.6366
2023-04-02T00:49:16.658Z,87.7991
2023-04-02T00:50:17.561Z,87.9271
2023-04-02T00:51:18.412Z,87.9680
2023-04-02T00:52:19.238Z,87.9064
2023-04-02T00:53:20.082Z,87.7399
2023-04-02T00:54:20.925Z,88.0881
2023-04-02T00:55:21.803Z,88.0488
2023-04-02T00:56:22.701Z,88.2977
2023-04-02T00:57:23.676Z,88.2783
2023-04-02T00:58:24.624Z,88.6418
2023-04-02T00:59:25.485Z,88.3640
2023-04-02T01:00:26.531Z,88.3101
2023-04-02T01:01:27.622Z,88.4105
2023-04-02T01:02:29.241Z,88.7943
2023-04-02T01:03:31.169Z,88.4192
2023-04-02T01:04:32.366Z,88.0690
2023-04-02T01:05:34.083Z,88.0370
2023-04-02T01:06:35.423Z,88.3784
2023-04-02T01:07:36.237Z,88.3618
2023-04-02T01:08:37.047Z,88.2015
2023-04-02T01:09:37.933Z,87.8091
2023-04-02T01:10:39.089Z,88.0304
2023-04-02T01:11:40.045Z,87.9180
2023-04-02T01:12:40.981Z,88.0732
2023-04-02T01:13:41.886Z,87.7823
2023-04-02T01:14:42.733Z,88.0847
2023-04-02T01:15:43.682Z,88.3003
2023-04-02T01:16:44.480Z,87.7867
2023-04-02T01:17:45.493Z,88.0327
2023-04-02T01:18:46.407Z,88.0203
2023-04-02T01:19:47.362Z,88.1518
2023-04-02T01:20:48.309Z,88.0616
2023-04-02T01:21:49.200Z,87.6687
2023-04-02T01:22:50.082Z,87.4343
2023-04-02T01:23:50.892Z,87.7027
2023-04-02T01:24:51.725Z,88.4580
2023-04-02T01:25:52.572Z,88.6388
2023-04-02T01:26:53.409Z,87.9720
2023-04-02T01:27:54.236Z,87.8895
2023-04-02T01:28:55.306Z,87.9541
2023-04-02T01:29:56.203Z,87.6837
2023-04-02T01:30:57.122Z,87.7831
2023-04-02T01:31:57.907Z,87.2580
2023-04-02T01:32:58.788Z,87.4506
2023-04-02T01:33:59.941Z,87.4507
2023-04-02T01:35:00.740Z,87.4683
2023-04-02T01:36:01.725Z,87.6188
2023-04-02T01:37:02.554Z,87.6790
2023-04-02T01:38:03.339Z,87.5997
2023-04-02T01:39:04.141Z,87.7531
2023-04-02T01:40:04.945Z,87.8543
2023-04-02T01:41:05.728Z,87.8208
2023-04-02T01:42:06.551Z,87.8470
2023-04-02T01:43:08.416Z,87.9008
2023-04-02T01:44:09.213Z,87.6443
2023-04-02T01:45:10.125Z,87.4569
2023-04-02T01:46:10.988Z,88.0921
2023-04-02T01:47:11.849Z,87.8972
2023-04-02T01:48:12.646Z,87.2957
2023-04-02T01:49:13.537Z,87.4228
2023-04-02T01:50:14.421Z,87.2614
2023-04-02T01:51:15.364Z,86.7065
2023-04-02T01:52:16.223Z,86.5307
2023-04-02T01:53:18.080Z,86.8321
2023-04-02T01:54:18.897Z,86.7218
2023-04-02T01:55:19.918Z,86.7322
2023-04-02T01:56:20.747Z,86.6549
2023-04-02T01:57:21.752Z,86.3426
2023-04-02T01:58:22.557Z,86.2854
2023-04-02T01:59:23.468Z,86.1007
2023-04-02T02:00:24.336Z,86.0802
2023-04-02T02:01:25.315Z,86.2422
2023-04-02T02:02:26.244Z,86.5154
2023-04-02T02:03:27.034Z,86.7670
2023-04-02T02:04:27.948Z,86.3527
2023-04-02T02:05:28.823Z,86.4146
2023-04-02T02:06:29.669Z,86.3133
2023-04-02T02:07:30.514Z,86.6565
2023-04-02T02:08:31.310Z,86.8981
2023-04-02T02:09:32.123Z,86.8061
2023-04-02T02:10:32.927Z,86.5620
2023-04-02T02:11:33.778Z,86.7960
2023-04-02T02:12:34.588Z,86.8424
2023-04-02T02:13:35.420Z,86.7903
2023-04-02T02:14:36.263Z,86.8343
2023-04-02T02:15:37.642Z,86.5921
2023-04-02T02:16:38.644Z,86.8165
2023-04-02T02:17:39.488Z,86.2829
2023-04-02T02:18:40.308Z,86.3149
2023-04-02T02:19:41.137Z,86.0913
2023-04-02T02:20:42.076Z,86.4073
2023-04-02T02:21:42.884Z,86.7010
2023-04-02T02:22:43.770Z,86.7905
2023-04-02T02:23:44.611Z,86.6461
2023-04-02T02:24:45.432Z,86.8809
2023-04-02T02:25:46.282Z,86.8985
2023-04-02T02:26:47.087Z,86.9034
2023-04-02T02:27:47.995Z,85.7880
2023-04-02T02:28:48.775Z,85.6426
2023-04-02T02:29:49.724Z,85.8105
2023-04-02T02:30:50.571Z,86.3342
2023-04-02T02:31:51.545Z,85.9305
2023-04-02T02:32:52.492Z,85.7027
2023-04-02T02:33:53.347Z,85.8699
2023-04-02T02:34:54.184Z,85.7646
2023-04-02T02:35:55.149Z,85.5446
2023-04-02T02:36:56.051Z,86.2947
2023-04-02T02:37:56.893Z,85.5966
2023-04-02T02:38:57.825Z,84.7785
2023-04-02T02:39:58.668Z,85.3274
2023-04-02T02:40:59.513Z,86.2804
2023-04-02T02:42:00.362Z,85.6426
2023-04-02T02:43:01.191Z,85.8548
2023-04-02T02:44:02.037Z,85.3304
2023-04-02T02:45:02.894Z,85.1754
2023-04-02T02:46:03.842Z,85.8499
2023-04-02T02:47:04.607Z,85.6322
2023-04-02T02:48:05.493Z,86.0444
2023-04-02T02:49:06.353Z,85.2679
2023-04-02T02:50:07.184Z,85.3046
2023-04-02T02:51:08.001Z,85.5602
2023-04-02T02:52:08.948Z,85.1631
2023-04-02T02:53:09.778Z,85.4428
2023-04-02T02:54:10.572Z,85.5763
2023-04-02T02:55:11.431Z,85.4776
2023-04-02T02:56:12.256Z,84.9831
2023-04-02T02:57:13.212Z,85.0576
2023-04-02T02:58:14.030Z,85.6139
2023-04-02T02:59:14.904Z,85.3412
2023-04-02T03:00:15.787Z,85.5391
2023-04-02T03:01:16.690Z,85.2739
2023-04-02T03:02:17.597Z,85.2436
2023-04-02T03:03:18.854Z,84.8736
2023-04-02T03:04:19.987Z,84.8082
2023-04-02T03:05:20.881Z,84.8026
2023-04-02T03:06:21.740Z,84.6980
2023-04-02T03:07:22.608Z,84.8703
2023-04-02T03:08:23.436Z,84.9481
2023-04-02T03:09:24.295Z,85.1819
2023-04-02T03:10:25.144Z,84.6035
2023-04-02T03:11:26.029Z,84.6108
2023-04-02T03:12:26.870Z,84.8670
2023-04-02T03:13:27.794Z,84.5573
2023-04-02T03:14:28.637Z,84.6549
2023-04-02T03:15:29.541Z,85.3129
2023-04-02T03:16:30.345Z,84.9478
2023-04-02T03:17:31.164Z,85.2496
2023-04-02T03:18:31.996Z,85.3977
2023-04-02T03:19:32.790Z,85.1808
2023-04-02T03:20:33.649Z,85.5899
2023-04-02T03:21:34.509Z,84.7974
2023-04-02T03:22:35.380Z,84.5665
2023-04-02T03:23:36.268Z,84.7020
2023-04-02T03:24:37.113Z,84.8805
2023-04-02T03:25:38.026Z,84.7229
2023-04-02T03:26:38.853Z,84.7625
2023-04-02T03:27:39.696Z,84.6770
2023-04-02T03:28:40.529Z,84.7614
2023-04-02T03:29:41.415Z,84.6803
2023-04-02T03:30:42.272Z,84.8569
2023-04-02T03:31:43.206Z,84.9525
2023-04-02T03:32:44.030Z,85.0324
2023-04-02T03:33:44.920Z,85.0125
2023-04-02T03:34:45.786Z,84.6632
2023-04-02T03:35:46.671Z,84.5167
2023-04-02T03:36:47.520Z,84.8253
2023-04-02T03:37:48.359Z,84.6380
2023-04-02T03:38:49.240Z,85.0124
2023-04-02T03:39:50.100Z,85.1942
2023-04-02T03:40:50.918Z,84.5666
2023-04-02T03:41:51.744Z,84.6907
2023-04-02T03:42:52.625Z,85.0879
2023-04-02T03:43:53.452Z,84.7859
2023-04-02T03:44:54.292Z,85.3253
2023-04-02T03:45:55.155Z,84.9141
2023-04-02T03:46:56.068Z,84.8364
2023-04-02T03:47:56.996Z,85.9951
2023-04-02T03:48:57.834Z,84.9619
2023-04-02T03:49:58.647Z,85.2641
2023-04-02T03:50:59.541Z,85.5383
2023-04-02T03:52:00.445Z,85.6028
2023-04-02T03:53:01.329Z,85.1859
2023-04-02T03:54:02.145Z,85.5059
2023-04-02T03:55:02.931Z,85.6395
2023-04-02T03:56:03.698Z,85.7168
2023-04-02T03:57:04.627Z,85.9000
2023-04-02T03:58:05.449Z,85.8985
2023-04-02T03:59:06.315Z,85.8735
2023-04-02T04:00:07.158Z,85.8249
2023-04-02T04:01:07.982Z,86.1232
2023-04-02T04:02:08.870Z,86.1482
2023-04-02T04:03:09.828Z,86.4109
2023-04-02T04:04:11.147Z,86.2858
2023-04-02T04:05:12.009Z,86.1324
2023-04-02T04:06:12.980Z,85.8402
2023-04-02T04:07:13.889Z,85.8659
2023-04-02T04:08:14.752Z,85.4952
2023-04-02T04:09:15.607Z,83.6018
2023-04-02T04:10:16.455Z,82.5045
2023-04-02T04:11:17.366Z,82.8788
2023-04-02T04:12:18.189Z,82.9813
2023-04-02T04:13:19.041Z,82.5931
2023-04-02T04:14:19.915Z,82.3760
2023-04-02T04:15:20.809Z,82.3895
2023-04-02T04:16:21.726Z,82.8684
2023-04-02T04:17:23.559Z,82.9979
2023-04-02T04:18:24.391Z,82.8559
2023-04-02T04:19:25.211Z,82.7105
2023-04-02T04:20:26.074Z,82.3139
2023-04-02T04:21:26.926Z,82.4635
2023-04-02T04:22:27.781Z,82.3740
2023-04-02T04:23:28.600Z,82.3481
2023-04-02T04:24:29.442Z,82.7155
2023-04-02T04:25:30.511Z,82.8159
2023-04-02T04:26:31.428Z,82.6278
2023-04-02T04:27:32.306Z,82.4895
2023-04-02T04:28:33.251Z,82.4765
2023-04-02T04:29:34.098Z,82.7902
2023-04-02T04:30:35.017Z,82.6919
2023-04-02T04:31:35.881Z,83.0989
2023-04-02T04:32:36.761Z,82.9141
2023-04-02T04:33:37.581Z,83.5071
2023-04-02T04:34:38.437Z,83.4379
2023-04-02T04:35:40.415Z,83.1439
2023-04-02T04:36:39.451Z,82.9745
2023-04-02T04:37:43.405Z,83.2400
2023-04-02T04:38:42.032Z,83.2449
2023-04-02T04:39:42.882Z,82.9552
2023-04-02T04:40:43.678Z,82.8655
2023-04-02T04:41:44.651Z,82.7945
2023-04-02T04:42:45.477Z,82.9068
2023-04-02T04:43:46.362Z,83.1839
2023-04-02T04:44:47.154Z,82.8219
2023-04-02T04:45:48.216Z,82.4262
2023-04-02T04:46:49.014Z,82.5901
2023-04-02T04:47:50.016Z,82.6949
2023-04-02T04:48:50.785Z,82.3442
2023-04-02T04:49:51.638Z,82.6036
2023-04-02T04:50:52.584Z,82.7422
2023-04-02T04:51:53.436Z,82.4157
2023-04-02T04:52:55.316Z,82.0695
2023-04-02T04:53:56.180Z,82.4359
2023-04-02T04:54:56.981Z,82.2239
2023-04-02T04:56:18.093Z,82.5929
2023-04-02T04:56:59.367Z,82.7864
2023-04-02T04:58:00.254Z,82.6412
2023-04-02T04:59:01.061Z,82.4973
2023-04-02T05:00:01.886Z,82.4131
2023-04-02T05:01:02.760Z,82.1828
2023-04-02T05:02:03.663Z,82.8073
2023-04-02T05:03:04.567Z,82.4363
2023-04-02T05:04:05.359Z,82.4618
2023-04-02T05:05:06.199Z,82.6096
2023-04-02T05:06:07.018Z,82.7884
2023-04-02T05:07:07.869Z,82.7332
2023-04-02T05:08:08.700Z,83.0460
2023-04-02T05:09:09.581Z,83.0387
2023-04-02T05:10:10.345Z,82.2864
2023-04-02T05:11:11.211Z,81.9532
2023-04-02T05:12:12.115Z,82.2325
2023-04-02T05:13:13.014Z,82.5397
2023-04-02T05:14:13.811Z,82.2775
2023-04-02T05:15:15.717Z,82.7476
2023-04-02T05:16:16.622Z,82.6848
2023-04-02T05:17:17.424Z,82.6833
2023-04-02T05:18:18.248Z,82.5407
2023-04-02T05:19:19.275Z,82.3224
2023-04-02T05:20:20.048Z,82.3266
2023-04-02T05:21:20.863Z,82.2937
2023-04-02T05:22:21.708Z,82.7229
2023-04-02T05:23:22.497Z,82.5324
2023-04-02T05:24:23.339Z,82.5350
2023-04-02T05:25:24.154Z,82.5956
2023-04-02T05:26:24.989Z,82.3059
2023-04-02T05:27:25.898Z,82.3721
2023-04-02T05:28:26.734Z,82.3691
2023-04-02T05:29:27.678Z,82.5399
2023-04-02T05:30:28.484Z,81.8289
2023-04-02T05:31:29.374Z,81.3235
2023-04-02T05:32:30.199Z,81.3137
2023-04-02T05:33:31.069Z,81.4641
2023-04-02T05:34:31.888Z,81.9450
2023-04-02T05:35:32.798Z,81.9864
2023-04-02T05:36:33.598Z,82.2122
2023-04-02T05:37:34.506Z,82.3441
2023-04-02T05:38:35.395Z,81.6103
2023-04-02T05:39:36.211Z,81.9268
2023-04-02T05:40:37.123Z,81.8990
2023-04-02T05:41:37.973Z,81.6245
2023-04-02T05:42:38.783Z,82.0455
2023-04-02T05:43:39.583Z,81.6224
2023-04-02T05:44:40.396Z,81.3982
2023-04-02T05:45:41.258Z,81.5855
2023-04-02T05:46:42.098Z,81.7375
2023-04-02T05:47:43.027Z,81.7626
2023-04-02T05:48:43.865Z,81.5634
2023-04-02T05:49:44.682Z,81.6372
2023-04-02T05:50:45.460Z,81.7166
2023-04-02T05:51:46.308Z,81.7478
2023-04-02T05:52:47.183Z,81.9933
2023-04-02T05:53:47.982Z,81.8170
2023-04-02T05:54:48.932Z,81.8146
2023-04-02T05:55:49.788Z,82.0495
2023-04-02T05:56:50.682Z,82.5223
2023-04-02T05:58:21.336Z,81.5729
2023-04-02T05:58:53.099Z,81.3945
2023-04-02T05:59:53.901Z,81.7508
2023-04-02T06:00:54.771Z,81.5397
2023-04-02T06:01:55.637Z,81.5267
2023-04-02T06:02:56.551Z,81.2339
2023-04-02T06:03:58.274Z,81.4949
2023-04-02T06:04:59.111Z,81.5620
2023-04-02T06:05:59.944Z,82.1111
2023-04-02T06:07:01.856Z,81.7841
2023-04-02T06:08:02.687Z,82.2899
2023-04-02T06:09:03.561Z,81.9713
2023-04-02T06:10:04.364Z,81.8209
2023-04-02T06:11:05.236Z,82.5295
2023-04-02T06:12:06.107Z,82.2931
2023-04-02T06:13:06.978Z,82.6951
2023-04-02T06:14:07.787Z,82.1118
2023-04-02T06:15:08.609Z,81.9521
2023-04-02T06:16:09.428Z,81.4136
2023-04-02T06:17:10.245Z,81.5356
2023-04-02T06:18:11.110Z,81.8834
2023-04-02T06:19:12.013Z,81.7558
2023-04-02T06:20:12.789Z,81.5482
2023-04-02T06:21:13.531Z,81.5015
2023-04-02T06:22:14.295Z,81.7506
2023-04-02T06:23:15.049Z,81.6547
2023-04-02T06:24:15.881Z,82.3854
2023-04-02T06:25:16.729Z,81.9862
2023-04-02T06:26:17.597Z,81.3014
2023-04-02T06:27:18.463Z,81.5728
2023-04-02T06:28:19.240Z,81.4549
2023-04-02T06:29:20.054Z,81.7735
2023-04-02T06:30:20.854Z,80.7696
2023-04-02T06:31:21.697Z,80.1943
2023-04-02T06:32:22.551Z,80.2281
2023-04-02T06:33:23.354Z,80.2170
2023-04-02T06:34:24.154Z,80.7018
2023-04-02T06:35:24.966Z,80.5598
2023-04-02T06:36:25.802Z,81.0542
2023-04-02T06:37:26.574Z,80.3884
2023-04-02T06:38:27.406Z,80.7803
2023-04-02T06:39:28.231Z,81.1263
2023-04-02T06:40:29.048Z,80.6113
2023-04-02T06:41:29.822Z,79.5236
2023-04-02T06:42:30.620Z,79.5998
2023-04-02T06:43:31.466Z,79.9688
2023-04-02T06:44:32.466Z,80.3096
2023-04-02T06:45:33.638Z,80.5241
2023-04-02T06:46:34.780Z,80.2710
2023-04-02T06:47:35.641Z,80.6500
2023-04-02T06:48:36.461Z,79.9726
2023-04-02T06:49:37.269Z,79.7709
2023-04-02T06:50:38.059Z,79.5105
2023-04-02T06:51:38.906Z,79.3244
2023-04-02T06:52:39.712Z,79.4150
2023-04-02T06:53:40.542Z,80.1938
2023-04-02T06:54:42.387Z,80.3558
2023-04-02T06:55:43.157Z,80.0643
2023-04-02T06:56:43.968Z,79.8532
2023-04-02T06:57:44.995Z,80.1315
2023-04-02T06:58:46.943Z,79.7219
2023-04-02T06:59:47.824Z,79.6419
2023-04-02T07:00:48.611Z,79.0977
2023-04-02T07:01:49.592Z,78.8696
2023-04-02T07:02:50.458Z,79.4621
2023-04-02T07:03:51.265Z,79.5767
2023-04-02T07:04:52.192Z,78.8306
2023-04-02T07:05:54.048Z,78.5381
2023-04-02T07:06:54.946Z,77.9054
2023-04-02T07:07:55.768Z,78.3006
2023-04-02T07:08:56.561Z,78.4604
2023-04-02T07:09:57.375Z,77.9864
2023-04-02T07:10:58.130Z,77.9763
2023-04-02T07:11:58.913Z,78.0025
2023-04-02T07:12:59.725Z,78.7454
2023-04-02T07:14:00.603Z,78.1979
2023-04-02T07:15:01.380Z,77.3517
2023-04-02T07:16:02.824Z,77.6396
2023-04-02T07:17:03.736Z,77.6042
2023-04-02T07:18:05.015Z,77.5448
2023-04-02T07:19:06.035Z,78.1149
2023-04-02T07:20:06.863Z,77.9577
2023-04-02T07:21:11.005Z,77.9567
2023-04-02T07:22:11.406Z,78.4713
2023-04-02T07:23:17.037Z,78.2866
2023-04-02T07:24:13.424Z,77.9793
2023-04-02T07:25:14.251Z,77.8575
2023-04-02T07:26:15.091Z,77.5581
2023-04-02T07:27:15.909Z,76.9759
2023-04-02T07:28:16.801Z,77.2194
2023-04-02T07:29:17.596Z,77.1090
2023-04-02T07:30:18.361Z,77.1810
2023-04-02T07:31:19.226Z,76.9088
2023-04-02T07:32:19.979Z,76.5836
2023-04-02T07:33:20.814Z,76.6091
2023-04-02T07:34:21.656Z,76.6155
2023-04-02T07:35:22.401Z,76.4882
2023-04-02T07:36:23.497Z,76.3495
2023-04-02T07:37:24.287Z,76.1652
2023-04-02T07:38:25.179Z,76.3847
2023-04-02T07:39:25.975Z,76.0098
2023-04-02T07:40:26.776Z,76.0995
2023-04-02T07:41:27.531Z,75.9014
2023-04-02T07:42:28.298Z,75.5766
2023-04-02T07:43:29.192Z,76.4614
2023-04-02T07:44:30.041Z,75.8675
2023-04-02T07:45:30.884Z,75.6200
2023-04-02T07:46:31.720Z,76.2906
2023-04-02T07:47:33.716Z,75.7076
2023-04-02T07:48:34.447Z,75.4567
2023-04-02T07:49:35.292Z,75.8624
2023-04-02T07:50:36.080Z,74.1230
2023-04-02T07:51:36.845Z,73.7686
2023-04-02T07:52:40.759Z,72.6063
2023-04-02T07:53:39.273Z,72.9457
2023-04-02T07:54:40.064Z,73.2026
2023-04-02T07:55:40.834Z,72.9134
2023-04-02T07:56:41.555Z,72.4255
2023-04-02T07:57:46.788Z,71.9393
2023-04-02T07:58:43.351Z,71.8290
2023-04-02T07:59:44.117Z,72.9536
2023-04-02T08:00:44.863Z,71.5146
2023-04-02T08:01:45.627Z,72.7883
2023-04-02T08:02:46.405Z,73.9949
2023-04-02T08:03:47.406Z,74.0932
2023-04-02T08:04:48.168Z,74.1807
2023-04-02T08:05:48.968Z,74.2620
2023-04-02T08:06:49.724Z,74.7395
2023-04-02T08:07:50.513Z,74.4900
2023-04-02T08:08:51.312Z,74.8745
2023-04-02T08:09:52.082Z,74.9867
2023-04-02T08:10:52.865Z,75.3623
2023-04-02T08:11:53.641Z,75.7693
2023-04-02T08:12:54.486Z,75.4772
2023-04-02T08:13:55.280Z,75.4524
2023-04-02T08:14:56.022Z,75.0903
2023-04-02T08:15:56.775Z,75.5281
2023-04-02T08:16:57.737Z,76.0588
2023-04-02T08:17:58.624Z,75.9219
2023-04-02T08:18:59.496Z,75.4703
2023-04-02T08:20:00.295Z,75.1505
2023-04-02T08:21:01.018Z,74.7359
2023-04-02T08:22:02.065Z,75.0148
2023-04-02T08:23:02.829Z,75.5653
2023-04-02T08:24:03.582Z,75.4291
2023-04-02T08:25:04.372Z,75.8355
2023-04-02T08:26:05.115Z,75.3428
2023-04-02T08:27:05.878Z,75.4414
2023-04-02T08:28:06.593Z,76.3660
2023-04-02T08:29:07.384Z,75.5785
2023-04-02T08:30:08.105Z,75.9720
2023-04-02T08:31:08.895Z,74.8290
2023-04-02T08:32:09.637Z,74.7862
2023-04-02T08:33:10.412Z,74.0654
2023-04-02T08:34:11.181Z,74.0355
2023-04-02T08:35:11.913Z,74.4597
2023-04-02T08:36:12.706Z,73.4050
2023-04-02T08:37:13.430Z,73.3521
2023-04-02T08:38:14.174Z,73.5934
2023-04-02T08:39:15.163Z,74.5954
2023-04-02T08:40:15.964Z,74.1148
2023-04-02T08:41:16.689Z,74.3001
2023-04-02T08:42:17.429Z,74.5662
2023-04-02T08:43:18.147Z,74.9427
2023-04-02T08:44:18.890Z,74.7946
2023-04-02T08:45:25.812Z,74.7790
2023-04-02T08:46:20.073Z,74.4210
2023-04-02T08:47:20.800Z,74.2087
2023-04-02T08:48:21.552Z,73.8802
2023-04-02T08:49:22.309Z,74.2012
2023-04-02T08:50:23.077Z,74.2390
2023-04-02T08:51:23.837Z,74.4334
2023-04-02T08:52:24.592Z,73.7248
2023-04-02T08:53:25.297Z,74.2712
2023-04-02T08:54:26.083Z,74.2208
2023-04-02T08:55:26.867Z,74.8414
2023-04-02T08:56:27.595Z,74.6118
2023-04-02T08:57:28.447Z,73.8570
2023-04-02T08:58:29.311Z,73.9417
2023-04-02T08:59:30.071Z,74.1100
2023-04-02T09:00:30.853Z,73.8610
2023-04-02T09:01:31.701Z,73.2027
2023-04-02T09:02:32.546Z,72.9341
2023-04-02T09:03:33.306Z,72.7494
2023-04-02T09:04:34.071Z,73.2049
2023-04-02T09:05:35.367Z,73.9135
2023-04-02T09:06:36.250Z,73.6114
2023-04-02T09:07:37.006Z,73.5177
2023-04-02T09:08:37.777Z,73.6074
2023-04-02T09:09:38.483Z,74.1566
2023-04-02T09:10:39.409Z,74.2163
2023-04-02T09:11:40.134Z,74.1042
2023-04-02T09:12:42.576Z,74.3044
2023-04-02T09:13:41.100Z,73.6598
2023-04-02T09:14:41.853Z,72.3339
2023-04-02T09:15:42.703Z,72.0660
2023-04-02T09:16:43.401Z,72.6059
2023-04-02T09:17:54.147Z,72.8980
2023-04-02T09:18:44.317Z,72.5013
2023-04-02T09:19:44.996Z,72.1326
2023-04-02T09:20:45.729Z,71.2776
2023-04-02T09:21:46.736Z,71.6630
2023-04-02T09:22:47.458Z,71.4134
2023-04-02T09:23:48.182Z,71.2982
2023-04-02T09:24:48.907Z,71.4646
2023-04-02T09:26:04.025Z,71.0251
2023-04-02T09:26:51.009Z,71.0939
2023-04-02T09:27:51.717Z,71.7194
2023-04-02T09:28:52.468Z,70.4090
2023-04-02T09:29:53.145Z,71.1255
2023-04-02T09:30:53.864Z,71.3776
2023-04-02T09:31:54.669Z,72.1117
2023-04-02T09:32:55.466Z,71.7349
2023-04-02T09:33:56.220Z,71.4248
2023-04-02T09:34:56.959Z,71.5770
2023-04-02T09:35:58.117Z,71.0656
2023-04-02T09:36:58.894Z,70.9703
2023-04-02T09:37:59.600Z,71.0650
2023-04-02T09:39:00.336Z,71.0854
2023-04-02T09:40:01.041Z,71.1524
2023-04-02T09:41:01.823Z,71.8727
2023-04-02T09:42:06.299Z,71.5484
2023-04-02T09:43:02.539Z,71.6768
2023-04-02T09:44:03.362Z,71.0974
2023-04-02T09:45:04.170Z,70.1725
2023-04-02T09:46:05.014Z,70.4086
2023-04-02T09:47:06.072Z,71.1123
2023-04-02T09:48:06.852Z,70.9409
2023-04-02T09:49:07.570Z,70.1912
2023-04-02T09:50:08.293Z,70.3587
2023-04-02T09:51:09.035Z,70.1855
2023-04-02T09:52:09.800Z,70.2707
2023-04-02T09:53:10.484Z,69.9290
2023-04-02T09:54:11.199Z,69.2977
2023-04-02T09:55:11.998Z,69.7221
2023-04-02T09:56:12.743Z,70.2246
2023-04-02T09:57:13.625Z,70.2138
2023-04-02T09:58:14.318Z,70.2971
2023-04-02T09:59:15.051Z,70.1317
2023-04-02T10:00:31.618Z,70.4160
2023-04-02T10:01:17.305Z,69.8650
2023-04-02T10:02:18.066Z,69.9402
2023-04-02T10:03:18.806Z,69.2709
2023-04-02T10:04:19.645Z,68.5249
2023-04-02T10:05:39.245Z,68.4194
2023-04-02T10:06:21.810Z,67.7876
2023-04-02T10:07:22.483Z,68.0629
2023-04-02T10:08:23.250Z,68.6997
2023-04-02T10:09:24.005Z,68.1578
2023-04-02T10:10:26.811Z,67.5760
2023-04-02T10:11:43.625Z,68.3484
2023-04-02T10:12:26.734Z,68.2761
2023-04-02T10:13:27.438Z,67.8766
2023-04-02T10:14:28.186Z,67.7926
2023-04-02T10:15:28.906Z,67.8976
2023-04-02T10:16:29.861Z,67.6292
2023-04-02T10:17:30.648Z,68.3875
2023-04-02T10:18:31.342Z,67.2003
2023-04-02T10:19:32.118Z,66.9325
2023-04-02T10:20:50.464Z,67.4635
2023-04-02T10:21:34.233Z,67.3828
2023-04-02T10:22:34.929Z,67.8037
2023-04-02T10:23:35.671Z,68.0366
2023-04-02T10:24:36.420Z,67.4464
2023-04-02T10:25:37.636Z,67.8600
2023-04-02T10:26:38.450Z,67.7185
2023-04-02T10:27:39.146Z,68.1793
2023-04-02T10:28:39.832Z,67.7649
2023-04-02T10:29:40.583Z,66.8626
2023-04-02T10:30:41.306Z,68.1158
2023-04-02T10:31:42.022Z,67.3659
2023-04-02T10:32:42.717Z,67.4761
2023-04-02T10:33:43.415Z,67.5664
2023-04-02T10:34:44.126Z,67.7091
2023-04-02T10:35:44.857Z,68.0313
2023-04-02T10:36:45.570Z,68.6184
2023-04-02T10:37:46.302Z,68.8312
2023-04-02T10:38:46.975Z,68.1262
2023-04-02T10:39:47.665Z,67.6418
2023-04-02T10:40:48.375Z,67.9455
2023-04-02T10:41:49.088Z,68.4431
2023-04-02T10:42:49.762Z,68.3766
2023-04-02T10:43:50.505Z,68.9054
2023-04-02T10:44:51.194Z,69.1129
2023-04-02T10:45:51.891Z,68.9928
2023-04-02T10:46:52.563Z,67.2318
2023-04-02T10:47:53.376Z,66.7763
2023-04-02T10:48:54.040Z,67.1362
2023-04-02T10:49:54.744Z,66.8924
2023-04-02T10:50:55.483Z,66.8705
2023-04-02T10:51:56.218Z,66.5925
2023-04-02T10:52:57.088Z,66.3741
2023-04-02T10:53:57.814Z,66.1901
2023-04-02T10:54:58.525Z,65.9052
2023-04-02T10:55:59.246Z,64.3779
2023-04-02T10:56:59.922Z,64.2527
2023-04-02T10:58:00.558Z,63.5937
2023-04-02T10:59:01.222Z,63.9853
2023-04-02T11:00:02.030Z,63.7201
2023-04-02T11:01:02.747Z,63.8841
2023-04-02T11:02:03.584Z,64.2067
2023-04-02T11:03:04.837Z,64.2694
2023-04-02T11:04:05.637Z,64.2346
2023-04-02T11:05:06.504Z,63.7326
2023-04-02T11:06:07.356Z,63.5941
2023-04-02T11:07:15.007Z,64.3065
2023-04-02T11:08:09.219Z,64.7297
2023-04-02T11:09:09.897Z,63.5242
2023-04-02T11:10:10.619Z,63.9295
2023-04-02T11:11:11.293Z,64.3631
2023-04-02T11:12:11.964Z,63.0510
2023-04-02T11:13:12.667Z,63.6331
2023-04-02T11:14:13.357Z,63.9852
2023-04-02T11:15:14.030Z,64.1820
2023-04-02T11:16:14.748Z,63.9150
2023-04-02T11:17:15.419Z,62.8286
2023-04-02T11:18:16.108Z,62.5018
2023-04-02T11:19:17.105Z,62.7978
2023-04-02T11:20:17.827Z,61.9173
2023-04-02T11:21:18.519Z,60.8090
2023-04-02T11:22:19.229Z,61.7930
2023-04-02T11:23:19.910Z,62.6379
2023-04-02T11:24:20.612Z,62.8437
2023-04-02T11:25:21.305Z,63.5248
2023-04-02T11:26:22.017Z,62.7431
2023-04-02T11:27:22.731Z,62.6889
2023-04-02T11:28:25.536Z,62.8761
2023-04-02T11:29:23.997Z,62.3511
2023-04-02T11:30:24.769Z,61.8131
2023-04-02T11:31:25.377Z,61.9941
2023-04-02T11:32:26.095Z,62.3421
2023-04-02T11:33:38.132Z,61.2555
2023-04-02T11:34:28.154Z,61.4146
2023-04-02T11:35:28.876Z,61.2967
2023-04-02T11:36:29.586Z,61.3327
2023-04-02T11:37:30.307Z,60.9183
2023-04-02T11:38:30.994Z,59.2827
2023-04-02T11:39:31.692Z,60.8045
2023-04-02T11:40:32.394Z,59.2407
2023-04-02T11:41:33.158Z,59.0203
2023-04-02T11:42:33.825Z,60.1654
2023-04-02T11:43:34.612Z,59.4119
2023-04-02T11:44:35.254Z,59.3960
2023-04-02T11:45:51.878Z,59.7379
2023-04-02T11:46:37.382Z,59.8555
2023-04-02T11:47:38.144Z,59.3248
2023-04-02T11:48:38.855Z,59.8255
2023-04-02T11:49:39.961Z,61.6100
2023-04-02T11:50:41.417Z,61.5555
2023-04-02T11:51:42.602Z,62.3902
2023-04-02T11:52:43.340Z,62.1703
2023-04-02T11:53:43.981Z,63.0686
2023-04-02T11:54:44.631Z,63.0783
2023-04-02T11:55:45.294Z,61.8992
2023-04-02T11:56:45.978Z,62.5422
2023-04-02T11:57:46.674Z,64.0604
2023-04-02T11:58:47.366Z,64.2555
2023-04-02T11:59:48.013Z,63.8929
2023-04-02T12:00:48.692Z,62.3546
2023-04-02T12:01:49.381Z,59.5588
2023-04-02T12:02:50.106Z,57.8922
2023-04-02T12:03:50.791Z,59.0759
2023-04-02T12:04:51.456Z,62.4596
2023-04-02T12:05:52.145Z,63.7159
2023-04-02T12:06:52.765Z,62.8567
2023-04-02T12:07:53.492Z,64.6400
2023-04-02T12:08:58.812Z,64.9213
2023-04-02T12:09:55.100Z,65.0565
2023-04-02T12:10:55.722Z,65.1531
2023-04-02T12:11:57.427Z,66.0644
2023-04-02T12:12:58.098Z,66.0224
2023-04-02T12:13:58.790Z,64.9354
2023-04-02T12:14:59.475Z,64.5084
2023-04-02T12:16:00.141Z,65.2928